createdAt,value
2019-04-10T00:02:45.935Z,29.27
2019-04-10T00:07:54.027Z,26.77
2019-04-10T00:13:04.435Z,31.15
2019-04-10T00:18:12.208Z,28.25
2019-04-10T00:23:21.466Z,30.25
2019-04-10T00:28:29.634Z,38.02
2019-04-10T00:33:37.765Z,25.68
2019-04-10T00:38:46.794Z,26.57
2019-04-10T00:43:55.255Z,28.38
2019-04-10T00:49:03.100Z,27.90
2019-04-10T00:54:10.296Z,25.23
2019-04-10T00:59:18.444Z,33.10
2019-04-10T01:04:26.605Z,26.85
2019-04-10T01:09:34.349Z,25.88
2019-04-10T01:14:42.166Z,22.40
2019-04-10T01:19:50.581Z,23.52
2019-04-10T01:25:02.213Z,22.48
2019-04-10T01:30:10.723Z,22.27
2019-04-10T01:35:18.239Z,23.15
2019-04-10T01:40:26.825Z,22.00
2019-04-10T01:45:35.584Z,22.22
2019-04-10T01:50:44.371Z,21.97
2019-04-10T01:55:52.115Z,21.60
2019-04-10T02:01:00.395Z,21.73
2019-04-10T02:06:07.905Z,19.98
2019-04-10T02:11:16.126Z,21.40
2019-04-10T02:16:25.531Z,19.95
2019-04-10T02:21:34.205Z,18.20
2019-04-10T02:26:42.054Z,19.35
2019-04-10T02:31:50.684Z,21.95
2019-04-10T02:37:00.659Z,21.27
2019-04-10T02:42:08.359Z,19.40
2019-04-10T02:47:16.860Z,20.17
2019-04-10T02:52:26.634Z,19.30
2019-04-10T02:57:35.016Z,20.02
2019-04-10T03:02:43.096Z,21.20
2019-04-10T03:07:52.455Z,20.70
2019-04-10T03:13:00.774Z,20.57
2019-04-10T03:18:08.617Z,19.02
2019-04-10T03:23:15.673Z,16.93
2019-04-10T03:28:32.005Z,16.75
2019-04-10T03:33:46.626Z,16.32
2019-04-10T03:38:58.582Z,18.35
2019-04-10T03:44:00.566Z,16.97
2019-04-10T03:49:11.666Z,15.68
2019-04-10T03:54:21.284Z,15.98
2019-04-10T03:59:32.661Z,16.67
2019-04-10T04:04:39.939Z,16.23
2019-04-10T04:09:48.491Z,16.05
2019-04-10T04:14:56.758Z,16.62
2019-04-10T04:20:06.655Z,15.85
2019-04-10T04:25:14.835Z,16.50
2019-04-10T04:30:22.421Z,15.48
2019-04-10T04:35:29.964Z,15.98
2019-04-10T04:40:41.976Z,15.60
2019-04-10T04:45:50.686Z,15.40
2019-04-10T04:50:59.839Z,16.40
2019-04-10T04:56:09.716Z,15.70
2019-04-10T05:01:17.677Z,14.13
2019-04-10T05:06:28.582Z,13.85
2019-04-10T05:11:48.913Z,14.78
2019-04-10T05:16:57.667Z,14.65
2019-04-10T05:22:06.069Z,14.35
2019-04-10T05:27:16.838Z,14.18
2019-04-10T05:32:26.695Z,14.25
2019-04-10T05:37:35.968Z,13.75
2019-04-10T05:42:43.686Z,13.90
2019-04-10T05:47:56.957Z,13.88
2019-04-10T05:53:07.775Z,14.50
2019-04-10T05:58:19.588Z,14.20
2019-04-10T06:03:32.297Z,15.08
2019-04-10T06:08:43.563Z,14.35
2019-04-10T06:13:54.338Z,15.18
2019-04-10T06:19:01.903Z,14.95
2019-04-10T06:24:12.052Z,14.23
2019-04-10T06:29:19.483Z,14.10
2019-04-10T06:34:28.611Z,15.13
2019-04-10T06:39:38.486Z,15.03
2019-04-10T06:44:50.232Z,14.75
2019-04-10T06:49:58.761Z,15.45
2019-04-10T06:55:11.270Z,18.20
2019-04-10T07:00:21.386Z,16.05
2019-04-10T07:05:40.030Z,17.23
2019-04-10T07:10:49.149Z,16.17
2019-04-10T07:15:47.261Z,15.48
2019-04-10T07:20:58.362Z,15.18
2019-04-10T07:26:10.521Z,14.90
2019-04-10T07:31:21.385Z,14.45
2019-04-10T07:36:32.855Z,14.43
2019-04-10T07:41:41.725Z,14.90
2019-04-10T07:46:58.295Z,13.93
2019-04-10T07:52:22.929Z,14.10
2019-04-10T07:57:33.700Z,14.40
2019-04-10T08:02:40.604Z,12.88
2019-04-10T08:08:19.262Z,13.08
2019-04-10T08:13:33.182Z,13.35
2019-04-10T08:18:40.492Z,12.80
2019-04-10T08:23:49.200Z,12.13
2019-04-10T08:28:57.155Z,11.90
2019-04-10T08:34:06.570Z,11.90
2019-04-10T08:39:26.978Z,12.10
2019-04-10T08:44:24.211Z,11.73
2019-04-10T08:49:31.358Z,11.95
2019-04-10T08:54:38.543Z,11.75
2019-04-10T08:59:48.487Z,11.88
2019-04-10T09:04:57.263Z,11.70
2019-04-10T09:10:06.977Z,11.40
2019-04-10T09:15:15.948Z,11.75
2019-04-10T09:20:24.805Z,11.80
2019-04-10T09:25:33.293Z,11.77
2019-04-10T09:30:43.198Z,12.50
2019-04-10T09:35:50.914Z,18.82
2019-04-10T09:41:07.787Z,12.25
2019-04-10T09:46:18.978Z,14.25
2019-04-10T09:51:26.668Z,12.23
2019-04-10T09:56:54.872Z,12.18
2019-04-10T10:02:09.426Z,12.63
2019-04-10T10:07:20.724Z,11.88
2019-04-10T10:12:34.406Z,16.42
2019-04-10T10:17:42.407Z,14.00
2019-04-10T10:22:50.191Z,14.07
2019-04-10T10:27:59.624Z,14.33
2019-04-10T10:33:07.765Z,15.70
2019-04-10T10:38:15.360Z,16.30
2019-04-10T10:43:30.060Z,15.43
2019-04-10T10:48:39.910Z,14.60
2019-04-10T10:53:50.885Z,15.53
2019-04-10T10:58:59.110Z,15.28
2019-04-10T11:04:06.846Z,14.53
2019-04-10T11:09:18.089Z,15.72
2019-04-10T11:14:25.367Z,14.90
2019-04-10T11:19:35.490Z,15.72
2019-04-10T11:24:44.389Z,15.47
2019-04-10T11:29:53.264Z,15.72
2019-04-10T11:35:03.275Z,14.93
2019-04-10T11:45:18.644Z,31.33
2019-04-10T11:50:28.118Z,32.73
2019-04-10T11:55:43.072Z,24.40
2019-04-10T12:00:51.285Z,21.15
2019-04-10T12:05:55.578Z,18.85
2019-04-10T12:16:09.826Z,17.67
2019-04-10T12:21:19.785Z,18.92
2019-04-10T12:26:28.374Z,17.15
2019-04-10T12:31:39.700Z,17.87
2019-04-10T12:36:51.768Z,19.52
2019-04-10T12:42:07.957Z,19.48
2019-04-10T12:47:18.582Z,19.62
2019-04-10T12:52:27.145Z,19.98
2019-04-10T12:57:34.907Z,20.15
2019-04-10T13:02:43.337Z,20.97
2019-04-10T13:07:51.851Z,20.45
2019-04-10T13:13:02.417Z,20.30
2019-04-10T13:23:17.802Z,20.77
2019-04-10T13:28:25.522Z,21.40
2019-04-10T13:33:32.953Z,21.33
2019-04-10T13:38:51.394Z,21.65
2019-04-10T13:43:58.790Z,23.98
2019-04-10T13:49:06.022Z,23.73
2019-04-10T13:54:15.049Z,25.77
2019-04-10T13:59:22.663Z,25.40
2019-04-10T14:04:31.219Z,23.45
2019-04-10T14:09:44.052Z,23.42
2019-04-10T14:14:47.047Z,19.77
2019-04-10T14:19:54.220Z,18.95
2019-04-10T14:25:01.498Z,19.70
2019-04-10T14:30:11.317Z,19.73
2019-04-10T14:35:18.953Z,18.87
2019-04-10T14:40:26.215Z,19.00
2019-04-10T14:45:35.339Z,19.23
2019-04-10T14:50:42.528Z,19.17
2019-04-10T14:55:53.495Z,20.02
2019-04-10T15:01:02.634Z,20.43
2019-04-10T15:06:09.214Z,19.98
2019-04-10T15:11:16.818Z,20.70
2019-04-10T15:16:25.102Z,20.05
2019-04-10T15:21:32.207Z,19.82
2019-04-10T15:26:39.089Z,19.92
2019-04-10T15:31:46.592Z,18.98
2019-04-10T15:36:56.405Z,19.80
2019-04-10T15:42:16.853Z,18.92
2019-04-10T15:47:27.028Z,18.12
2019-04-10T15:52:35.222Z,17.00
2019-04-10T15:57:47.715Z,16.20
2019-04-10T16:03:02.838Z,17.92
2019-04-10T16:08:14.224Z,17.30
2019-04-10T16:13:22.516Z,17.27
2019-04-10T16:18:46.688Z,17.42
2019-04-10T16:23:56.265Z,16.20
2019-04-10T16:29:05.221Z,16.95
2019-04-10T16:34:13.474Z,17.73
2019-04-10T16:39:22.247Z,16.55
2019-04-10T16:44:30.290Z,17.00
2019-04-10T16:49:37.557Z,17.23
2019-04-10T16:54:45.227Z,17.90
2019-04-10T16:59:52.907Z,18.75
2019-04-10T17:05:00.510Z,18.07
2019-04-10T17:10:17.716Z,17.42
2019-04-10T17:15:19.769Z,17.65
2019-04-10T17:20:28.659Z,18.77
2019-04-10T17:25:36.431Z,16.97
2019-04-10T17:30:44.187Z,18.25
2019-04-10T17:35:51.801Z,16.97
2019-04-10T17:41:00.778Z,17.70
2019-04-10T17:46:07.593Z,17.70
2019-04-10T17:51:15.232Z,18.25
2019-04-10T17:56:22.722Z,19.73
2019-04-10T18:01:30.472Z,16.87
2019-04-10T18:06:37.525Z,17.75
2019-04-10T18:11:45.692Z,17.30
2019-04-10T18:16:53.993Z,17.27
2019-04-10T18:22:04.134Z,16.62
2019-04-10T18:27:12.259Z,16.70
2019-04-10T18:32:21.275Z,16.07
2019-04-10T18:37:29.674Z,16.20
2019-04-10T18:42:38.551Z,17.32
2019-04-10T18:47:46.461Z,16.48
2019-04-10T18:52:53.941Z,16.60
2019-04-10T18:58:03.204Z,17.73
2019-04-10T19:03:13.045Z,17.12
2019-04-10T19:08:21.767Z,17.42
2019-04-10T19:13:32.772Z,16.90
2019-04-10T19:18:40.276Z,17.67
2019-04-10T19:23:47.962Z,17.35
2019-04-10T19:28:55.306Z,17.42
2019-04-10T19:34:03.229Z,18.15
2019-04-10T19:39:11.228Z,16.50
2019-04-10T19:44:19.080Z,17.55
2019-04-10T19:49:26.619Z,17.15
2019-04-10T19:54:35.351Z,17.45
2019-04-10T19:59:42.312Z,16.73
2019-04-10T20:04:49.044Z,16.60
2019-04-10T20:09:56.925Z,17.45
2019-04-10T20:15:04.402Z,16.87
2019-04-10T20:20:19.374Z,17.00
2019-04-10T20:25:28.195Z,18.37
2019-04-10T20:30:37.026Z,17.52
2019-04-10T20:35:45.316Z,17.63
2019-04-10T20:40:53.954Z,16.10
2019-04-10T20:46:02.135Z,16.20
2019-04-10T20:51:09.711Z,15.93
2019-04-10T20:56:18.286Z,15.00
2019-04-10T21:01:29.552Z,16.37
2019-04-10T21:06:39.483Z,16.07
2019-04-10T21:11:58.912Z,16.67
2019-04-10T21:16:53.966Z,17.60
2019-04-10T21:22:01.814Z,16.20
2019-04-10T21:27:09.157Z,16.35
2019-04-10T21:32:16.912Z,14.63
2019-04-10T21:37:24.340Z,15.30
2019-04-10T21:42:31.585Z,15.08
2019-04-10T21:47:39.419Z,16.42
2019-04-10T21:52:47.512Z,16.32
2019-04-10T21:57:55.435Z,16.25
2019-04-10T22:03:02.909Z,16.42
2019-04-10T22:08:11.142Z,17.05
2019-04-10T22:13:17.997Z,18.23
2019-04-10T22:18:25.505Z,18.75
2019-04-10T22:23:32.665Z,20.97
2019-04-10T22:28:41.278Z,19.85
2019-04-10T22:33:48.918Z,18.40
2019-04-10T22:38:57.033Z,18.98
2019-04-10T22:44:05.378Z,22.60
2019-04-10T22:49:12.558Z,26.95
2019-04-10T22:54:19.949Z,24.07
2019-04-10T22:59:28.385Z,25.50
2019-04-10T23:04:36.937Z,24.72
2019-04-10T23:09:44.440Z,21.75
2019-04-10T23:14:51.901Z,19.35
2019-04-10T23:20:00.620Z,23.02
2019-04-10T23:25:09.946Z,23.42
2019-04-10T23:30:19.939Z,24.03
2019-04-10T23:35:27.637Z,21.48
2019-04-10T23:40:35.400Z,21.30
2019-04-10T23:45:42.483Z,21.45
2019-04-10T23:50:54.401Z,21.68
2019-04-10T23:56:04.676Z,23.18
